createdAt,value
2023-02-03T00:00:12.279Z,63.65
2023-02-03T00:02:41.663Z,63.68
2023-02-03T00:05:10.748Z,64.17
2023-02-03T00:07:41.482Z,64.55
2023-02-03T00:10:11.210Z,64.16
2023-02-03T00:12:39.548Z,63.62
2023-02-03T00:15:09.813Z,63.63
2023-02-03T00:17:39.959Z,63.51
2023-02-03T00:20:09.180Z,63.48
2023-02-03T00:22:37.820Z,63.40
2023-02-03T00:25:07.390Z,63.18
2023-02-03T00:27:36.147Z,62.85
2023-02-03T00:30:05.437Z,63.39
2023-02-03T00:32:34.215Z,63.68
2023-02-03T00:35:04.251Z,63.22
2023-02-03T00:37:33.045Z,63.92
2023-02-03T00:40:03.338Z,63.14
2023-02-03T00:42:33.496Z,63.97
2023-02-03T00:45:02.388Z,64.06
2023-02-03T00:47:31.015Z,63.96
2023-02-03T00:49:59.804Z,64.26
2023-02-03T00:52:29.862Z,63.62
2023-02-03T00:54:58.458Z,63.98
2023-02-03T00:57:27.370Z,64.24
2023-02-03T00:59:56.198Z,63.74
2023-02-03T01:02:25.145Z,63.72
2023-02-03T01:04:54.644Z,64.06
2023-02-03T01:07:23.354Z,63.65
2023-02-03T01:09:53.487Z,63.97
2023-02-03T01:12:22.528Z,64.44
2023-02-03T01:14:51.081Z,64.35
2023-02-03T01:17:19.854Z,64.68
2023-02-03T01:19:48.564Z,64.47
2023-02-03T01:22:18.965Z,64.91
2023-02-03T01:24:47.764Z,64.40
2023-02-03T01:27:17.882Z,64.63
2023-02-03T01:29:46.572Z,64.52
2023-02-03T01:32:15.464Z,64.32
2023-02-03T01:34:44.522Z,63.99
2023-02-03T01:37:14.864Z,64.00
2023-02-03T01:39:43.628Z,64.03
2023-02-03T01:42:15.497Z,63.76
2023-02-03T01:44:49.685Z,63.35
2023-02-03T01:47:29.163Z,64.30
2023-02-03T01:50:08.120Z,63.66
2023-02-03T01:52:38.225Z,63.90
2023-02-03T01:55:11.754Z,64.66
2023-02-03T01:57:48.663Z,64.57
2023-02-03T02:00:19.967Z,64.23
2023-02-03T02:02:50.316Z,64.34
2023-02-03T02:05:26.854Z,64.66
2023-02-03T02:07:58.057Z,64.59
2023-02-03T02:10:27.964Z,64.75
2023-02-03T02:12:59.078Z,65.20
2023-02-03T02:15:41.487Z,65.34
2023-02-03T02:18:29.231Z,65.66
2023-02-03T02:21:19.914Z,65.14
2023-02-03T02:24:14.220Z,65.84
2023-02-03T02:27:07.074Z,66.11
2023-02-03T02:29:57.673Z,66.14
2023-02-03T02:32:47.392Z,65.92
2023-02-03T02:35:28.117Z,66.86
2023-02-03T02:38:04.641Z,66.74
2023-02-03T02:40:43.713Z,67.18
2023-02-03T02:43:20.870Z,66.37
2023-02-03T02:45:52.627Z,66.67
2023-02-03T02:48:28.897Z,66.88
2023-02-03T02:51:00.588Z,66.81
2023-02-03T02:53:34.556Z,66.86
2023-02-03T02:56:11.052Z,67.14
2023-02-03T02:58:45.106Z,67.88
2023-02-03T03:01:16.515Z,67.85
2023-02-03T03:03:47.065Z,68.20
2023-02-03T03:06:21.463Z,68.79
2023-02-03T03:08:58.182Z,68.77
2023-02-03T03:11:29.918Z,68.55
2023-02-03T03:14:00.863Z,69.42
2023-02-03T03:16:31.094Z,69.49
2023-02-03T03:19:04.569Z,69.69
2023-02-03T03:21:38.544Z,69.25
2023-02-03T03:24:11.506Z,69.76
2023-02-03T03:26:47.302Z,69.68
2023-02-03T03:29:22.355Z,70.33
2023-02-03T03:31:51.597Z,70.59
2023-02-03T03:34:22.014Z,70.51
2023-02-03T03:36:59.534Z,70.70
2023-02-03T03:39:35.629Z,70.99
2023-02-03T03:42:13.546Z,70.97
2023-02-03T03:44:54.493Z,70.96
2023-02-03T03:47:29.368Z,70.68
2023-02-03T03:50:02.736Z,70.35
2023-02-03T03:52:36.065Z,70.33
2023-02-03T03:55:09.855Z,70.46
2023-02-03T03:57:43.136Z,70.08
2023-02-03T04:00:16.647Z,70.12
2023-02-03T04:02:52.692Z,70.02
2023-02-03T04:05:24.321Z,70.30
2023-02-03T04:07:53.193Z,70.19
2023-02-03T04:10:30.957Z,70.36
2023-02-03T04:12:59.760Z,70.51
2023-02-03T04:15:29.059Z,70.48
2023-02-03T04:17:58.296Z,70.81
2023-02-03T04:20:28.902Z,70.44
2023-02-03T04:22:58.395Z,70.66
2023-02-03T04:25:27.530Z,70.17
2023-02-03T04:27:56.911Z,70.55
2023-02-03T04:30:26.291Z,70.32
2023-02-03T04:32:55.541Z,71.00
2023-02-03T04:35:24.218Z,71.22
2023-02-03T04:37:54.558Z,71.13
2023-02-03T04:40:23.201Z,71.22
2023-02-03T04:42:51.813Z,71.27
2023-02-03T04:45:20.597Z,71.39
2023-02-03T04:47:54.433Z,71.01
2023-02-03T04:50:23.703Z,71.12
2023-02-03T04:52:53.748Z,70.26
2023-02-03T04:55:22.473Z,70.24
2023-02-03T04:57:51.170Z,69.90
2023-02-03T05:00:20.436Z,70.52
2023-02-03T05:02:49.157Z,69.92
2023-02-03T05:05:18.056Z,70.91
2023-02-03T05:07:46.718Z,71.23
2023-02-03T05:10:17.425Z,72.26
2023-02-03T05:12:46.182Z,72.31
2023-02-03T05:15:14.951Z,73.12
2023-02-03T05:17:44.095Z,73.18
2023-02-03T05:20:13.912Z,73.80
2023-02-03T05:22:43.083Z,74.44
2023-02-03T05:25:12.189Z,74.49
2023-02-03T05:27:43.157Z,74.67
2023-02-03T05:30:13.063Z,74.84
2023-02-03T05:32:41.846Z,74.72
2023-02-03T05:35:13.428Z,75.34
2023-02-03T05:37:42.187Z,75.55
2023-02-03T05:40:21.378Z,75.95
2023-02-03T05:42:51.812Z,76.08
2023-02-03T05:45:20.538Z,76.10
2023-02-03T05:47:49.267Z,75.68
2023-02-03T05:50:18.204Z,75.45
2023-02-03T05:52:47.057Z,75.56
2023-02-03T05:55:15.744Z,75.51
2023-02-03T05:57:44.435Z,75.87
2023-02-03T06:00:16.159Z,75.93
2023-02-03T06:02:44.840Z,76.09
2023-02-03T06:05:13.606Z,76.32
2023-02-03T06:07:42.728Z,76.24
2023-02-03T06:10:11.897Z,76.18
2023-02-03T06:12:40.820Z,76.45
2023-02-03T06:15:10.631Z,76.96
2023-02-03T06:17:40.828Z,76.79
2023-02-03T06:20:12.532Z,77.21
2023-02-03T06:22:41.475Z,77.46
2023-02-03T06:25:13.187Z,76.89
2023-02-03T06:27:42.435Z,77.40
2023-02-03T06:30:12.647Z,77.22
2023-02-03T06:32:42.840Z,77.14
2023-02-03T06:35:11.642Z,77.09
2023-02-03T06:37:40.297Z,77.36
2023-02-03T06:40:11.415Z,77.39
2023-02-03T06:42:40.128Z,77.77
2023-02-03T06:45:09.791Z,77.63
2023-02-03T06:47:40.622Z,77.53
2023-02-03T06:50:12.826Z,77.35
2023-02-03T06:52:41.809Z,77.43
2023-02-03T06:55:11.267Z,77.45
2023-02-03T06:57:45.776Z,78.46
2023-02-03T07:00:18.785Z,78.50
2023-02-03T07:02:48.360Z,78.37
2023-02-03T07:05:18.571Z,78.45
2023-02-03T07:07:47.329Z,78.58
2023-02-03T07:10:16.066Z,79.17
2023-02-03T07:12:44.877Z,79.04
2023-02-03T07:15:14.465Z,79.25
2023-02-03T07:17:43.017Z,79.53
2023-02-03T07:20:12.648Z,79.38
2023-02-03T07:22:44.095Z,80.12
2023-02-03T07:25:12.824Z,80.01
2023-02-03T07:27:41.415Z,80.17
2023-02-03T07:30:11.582Z,79.87
2023-02-03T07:32:40.290Z,80.26
2023-02-03T07:35:09.836Z,79.98
2023-02-03T07:37:38.251Z,80.76
2023-02-03T07:40:08.957Z,80.93
2023-02-03T07:42:37.660Z,80.09
2023-02-03T07:45:06.913Z,80.26
2023-02-03T07:47:35.587Z,80.95
2023-02-03T07:50:04.811Z,81.02
2023-02-03T07:52:33.499Z,80.44
2023-02-03T07:55:02.505Z,80.78
2023-02-03T07:57:32.586Z,80.97
2023-02-03T08:04:17.549Z,81.73
2023-02-03T08:06:46.340Z,81.42
2023-02-03T08:09:14.997Z,81.28
2023-02-03T08:11:43.775Z,81.70
2023-02-03T08:14:13.934Z,80.95
2023-02-03T08:16:43.097Z,81.54
2023-02-03T08:19:12.160Z,81.02
2023-02-03T08:21:40.832Z,81.92
2023-02-03T08:24:09.883Z,81.68
2023-02-03T08:26:38.971Z,82.07
2023-02-03T08:29:08.816Z,81.79
2023-02-03T08:31:39.403Z,82.44
2023-02-03T08:34:08.249Z,82.60
2023-02-03T08:36:40.213Z,82.37
2023-02-03T08:39:12.033Z,82.87
2023-02-03T08:41:42.122Z,83.28
2023-02-03T08:44:10.807Z,83.79
2023-02-03T08:46:44.467Z,83.10
2023-02-03T08:49:13.722Z,83.37
2023-02-03T08:51:42.696Z,83.19
2023-02-03T08:54:11.404Z,83.73
2023-02-03T08:56:40.948Z,83.54
2023-02-03T08:59:10.046Z,84.28
2023-02-03T09:01:40.908Z,83.99
2023-02-03T09:04:11.513Z,84.61
2023-02-03T09:06:41.508Z,84.83
2023-02-03T09:09:10.625Z,84.90
2023-02-03T09:11:39.318Z,84.58
2023-02-03T09:14:08.316Z,84.84
2023-02-03T09:16:37.426Z,84.90
2023-02-03T09:19:06.260Z,84.66
2023-02-03T09:21:40.403Z,84.38
2023-02-03T09:24:13.577Z,84.50
2023-02-03T09:26:42.197Z,85.39
2023-02-03T09:29:11.185Z,85.33
2023-02-03T09:31:39.953Z,85.70
2023-02-03T09:34:08.743Z,85.32
2023-02-03T09:36:40.850Z,85.41
2023-02-03T09:39:10.331Z,85.46
2023-02-03T09:42:03.780Z,85.93
2023-02-03T09:44:43.556Z,85.73
2023-02-03T09:47:17.598Z,86.11
2023-02-03T09:49:52.427Z,85.29
2023-02-03T09:52:26.562Z,85.54
2023-02-03T09:55:00.341Z,85.24
2023-02-03T09:57:31.276Z,85.41
2023-02-03T10:00:03.918Z,86.29
2023-02-03T10:02:48.134Z,86.01
2023-02-03T10:05:23.897Z,86.46
2023-02-03T10:08:04.829Z,86.38
2023-02-03T10:10:41.159Z,86.02
2023-02-03T10:13:24.561Z,86.18
2023-02-03T10:16:17.725Z,87.04
2023-02-03T10:18:52.540Z,86.55
2023-02-03T10:21:31.557Z,86.45
2023-02-03T10:24:03.416Z,86.46
2023-02-03T10:26:32.625Z,87.06
2023-02-03T10:29:09.776Z,86.87
2023-02-03T10:31:39.485Z,87.45
2023-02-03T10:34:11.893Z,86.99
2023-02-03T10:36:53.837Z,87.19
2023-02-03T10:39:33.718Z,87.88
2023-02-03T10:42:04.100Z,87.23
2023-02-03T10:44:38.609Z,87.25
2023-02-03T10:47:25.939Z,87.34
2023-02-03T10:49:57.629Z,87.56
2023-02-03T10:52:30.699Z,87.61
2023-02-03T10:55:00.911Z,88.32
2023-02-03T10:57:31.536Z,88.19
2023-02-03T11:00:22.498Z,88.20
2023-02-03T11:02:58.954Z,87.97
2023-02-03T11:05:28.137Z,88.23
2023-02-03T11:07:58.168Z,88.12
2023-02-03T11:10:37.226Z,88.78
2023-02-03T11:13:19.531Z,88.24
2023-02-03T11:15:57.243Z,88.80
2023-02-03T11:18:43.162Z,88.14
2023-02-03T11:21:14.868Z,88.25
2023-02-03T11:23:51.925Z,87.88
2023-02-03T11:26:26.000Z,88.62
2023-02-03T11:28:58.449Z,88.49
2023-02-03T11:31:29.422Z,88.11
2023-02-03T11:34:02.146Z,88.81
2023-02-03T11:36:34.043Z,89.11
2023-02-03T11:39:24.657Z,89.26
2023-02-03T11:41:55.142Z,89.08
2023-02-03T11:44:29.664Z,88.62
2023-02-03T11:47:03.619Z,89.47
2023-02-03T11:49:59.770Z,89.66
2023-02-03T11:52:49.315Z,88.78
2023-02-03T11:55:44.530Z,89.35
2023-02-03T11:58:41.262Z,89.36
2023-02-03T12:01:21.157Z,89.38
2023-02-03T12:04:16.070Z,89.57
2023-02-03T12:07:03.439Z,89.45
2023-02-03T12:09:43.590Z,89.25
2023-02-03T12:12:35.549Z,89.10
2023-02-03T12:15:19.204Z,89.82
2023-02-03T12:18:00.476Z,89.61
2023-02-03T12:20:41.893Z,89.73
2023-02-03T12:23:24.374Z,90.01
2023-02-03T12:26:07.961Z,90.23
2023-02-03T12:28:51.956Z,89.96
2023-02-03T12:31:31.897Z,90.17
2023-02-03T12:34:13.865Z,90.13
2023-02-03T12:36:46.586Z,90.27
2023-02-03T12:39:22.743Z,90.92
2023-02-03T12:42:00.034Z,90.85
2023-02-03T12:44:34.889Z,90.58
2023-02-03T12:47:14.894Z,91.21
2023-02-03T12:49:48.562Z,90.67
2023-02-03T12:52:25.265Z,91.47
2023-02-03T12:55:00.845Z,91.23
2023-02-03T12:57:35.660Z,91.54
2023-02-03T13:00:31.171Z,90.90
2023-02-03T13:03:14.431Z,91.79
2023-02-03T13:05:48.789Z,91.64
2023-02-03T13:08:25.179Z,91.76
2023-02-03T13:11:00.450Z,91.78
2023-02-03T13:13:36.797Z,91.97
2023-02-03T13:16:10.851Z,91.79
2023-02-03T13:18:45.899Z,92.03
2023-02-03T13:21:14.939Z,91.81
2023-02-03T13:23:47.710Z,91.91
2023-02-03T13:26:38.778Z,91.69
2023-02-03T13:29:24.576Z,92.34
2023-02-03T13:32:10.278Z,91.95
2023-02-03T13:35:01.611Z,92.21
2023-02-03T13:37:52.308Z,92.74
2023-02-03T13:40:33.361Z,92.49
2023-02-03T13:43:06.351Z,92.20
2023-02-03T13:45:41.789Z,92.85
2023-02-03T13:48:17.877Z,92.21
2023-02-03T13:50:49.667Z,92.32
2023-02-03T13:53:22.514Z,93.21
2023-02-03T13:55:57.114Z,92.26
2023-02-03T13:58:29.311Z,92.47
2023-02-03T14:01:25.012Z,93.31
2023-02-03T14:03:54.098Z,92.38
2023-02-03T14:06:45.952Z,93.47
2023-02-03T14:09:24.626Z,93.22
2023-02-03T14:11:53.886Z,93.58
2023-02-03T14:14:43.387Z,93.16
2023-02-03T14:17:32.449Z,93.58
2023-02-03T14:20:01.500Z,93.38
2023-02-03T14:22:31.812Z,93.44
2023-02-03T14:25:08.309Z,93.98
2023-02-03T14:27:37.501Z,93.26
2023-02-03T14:30:10.072Z,93.80
2023-02-03T14:32:51.656Z,94.33
2023-02-03T14:35:23.811Z,93.41
2023-02-03T14:37:56.170Z,94.60
2023-02-03T14:40:36.019Z,94.07
2023-02-03T14:43:25.781Z,94.08
2023-02-03T14:46:21.995Z,93.84
2023-02-03T14:49:00.350Z,94.14
2023-02-03T14:51:53.189Z,94.63
2023-02-03T14:54:40.169Z,94.36
2023-02-03T14:57:23.921Z,94.85
2023-02-03T14:59:59.259Z,94.42
2023-02-03T15:02:31.488Z,94.82
2023-02-03T15:05:36.940Z,94.68
2023-02-03T15:08:06.049Z,95.17
2023-02-03T15:10:43.919Z,95.15
2023-02-03T15:13:27.628Z,95.86
2023-02-03T15:15:59.043Z,95.36
2023-02-03T15:18:33.406Z,95.13
2023-02-03T15:21:02.162Z,95.81
2023-02-03T15:23:32.445Z,96.12
2023-02-03T15:26:03.372Z,95.86
2023-02-03T15:28:33.907Z,95.67
2023-02-03T15:31:08.465Z,95.49
2023-02-03T15:33:40.264Z,96.50
2023-02-03T15:36:18.307Z,95.74
2023-02-03T15:38:53.066Z,95.84
2023-02-03T15:41:25.004Z,95.94
2023-02-03T15:44:00.204Z,95.79
2023-02-03T15:46:33.916Z,96.47
2023-02-03T15:49:08.882Z,96.54
2023-02-03T15:51:44.242Z,96.41
2023-02-03T15:54:19.190Z,97.03
2023-02-03T15:56:57.142Z,96.43
2023-02-03T15:59:33.356Z,97.15
2023-02-03T16:02:03.690Z,96.66
2023-02-03T16:04:32.651Z,96.50
2023-02-03T16:07:01.931Z,96.22
2023-02-03T16:09:34.165Z,96.52
2023-02-03T16:12:07.434Z,96.62
2023-02-03T16:14:38.852Z,97.21
2023-02-03T16:17:07.832Z,96.10
2023-02-03T16:19:40.659Z,96.26
2023-02-03T16:22:31.660Z,97.08
2023-02-03T16:25:15.792Z,96.88
2023-02-03T16:27:46.840Z,96.84
2023-02-03T16:30:35.935Z,96.90
2023-02-03T16:33:23.994Z,96.86
2023-02-03T16:36:02.795Z,96.63
2023-02-03T16:38:41.488Z,97.04
2023-02-03T16:41:28.242Z,96.72
2023-02-03T16:44:07.006Z,96.54
2023-02-03T16:46:48.300Z,96.41
2023-02-03T16:49:26.889Z,96.93
2023-02-03T16:51:55.787Z,96.20
2023-02-03T16:54:24.681Z,96.43
2023-02-03T16:56:53.516Z,96.04
2023-02-03T16:59:22.314Z,96.36
2023-02-03T17:01:52.572Z,95.93
2023-02-03T17:04:21.401Z,96.02
2023-02-03T17:06:51.840Z,95.46
2023-02-03T17:09:22.431Z,95.98
2023-02-03T17:11:51.239Z,95.38
2023-02-03T17:14:20.059Z,95.54
2023-02-03T17:16:49.036Z,95.37
2023-02-03T17:19:19.213Z,95.29
2023-02-03T17:21:48.153Z,95.02
2023-02-03T17:24:16.984Z,94.89
2023-02-03T17:26:45.809Z,94.50
2023-02-03T17:29:14.569Z,94.87
2023-02-03T17:31:43.343Z,94.52
2023-02-03T17:34:12.101Z,94.85
2023-02-03T17:36:43.081Z,94.45
2023-02-03T17:55:05.919Z,92.90
2023-02-03T17:57:38.055Z,93.23
2023-02-03T18:00:08.377Z,92.61
2023-02-03T18:02:46.106Z,92.45
2023-02-03T18:05:14.963Z,92.13
2023-02-03T18:07:45.121Z,91.38
2023-02-03T18:10:14.110Z,91.48
2023-02-03T18:12:43.529Z,91.59
2023-02-03T18:15:12.216Z,91.41
2023-02-03T18:17:41.044Z,91.39
2023-02-03T18:20:10.898Z,90.73
2023-02-03T18:22:39.616Z,90.36
2023-02-03T18:25:10.125Z,90.49
2023-02-03T18:27:38.930Z,90.42
2023-02-03T18:30:11.685Z,90.07
2023-02-03T18:32:40.514Z,90.14
2023-02-03T18:35:13.215Z,89.87
2023-02-03T18:37:41.990Z,89.71
2023-02-03T18:40:12.889Z,89.99
2023-02-03T18:42:41.633Z,89.61
2023-02-03T18:45:13.200Z,89.25
2023-02-03T18:47:41.923Z,89.10
2023-02-03T18:50:11.117Z,89.00
2023-02-03T18:52:39.918Z,89.39
2023-02-03T18:55:09.592Z,88.90
2023-02-03T18:57:39.403Z,88.69
2023-02-03T19:00:09.862Z,88.60
2023-02-03T19:02:39.564Z,89.06
2023-02-03T19:05:12.072Z,88.62
2023-02-03T19:07:40.839Z,88.99
2023-02-03T19:10:10.459Z,88.87
2023-02-03T19:12:40.782Z,88.36
2023-02-03T19:15:10.553Z,88.34
2023-02-03T19:17:39.370Z,88.43
2023-02-03T19:20:09.753Z,88.27
2023-02-03T19:22:38.524Z,88.55
2023-02-03T19:25:07.970Z,88.55
2023-02-03T19:27:36.890Z,88.26
2023-02-03T19:30:07.738Z,88.22
2023-02-03T19:32:36.397Z,88.29
2023-02-03T19:35:05.254Z,88.14
2023-02-03T19:37:34.085Z,87.84
2023-02-03T19:40:02.783Z,87.16
2023-02-03T19:42:31.524Z,87.70
2023-02-03T19:45:00.265Z,87.14
2023-02-03T19:47:30.521Z,87.31
2023-02-03T19:49:59.630Z,86.71
2023-02-03T19:52:28.359Z,86.09
2023-02-03T19:54:57.181Z,86.38
2023-02-03T19:57:25.800Z,86.30
2023-02-03T19:59:54.588Z,85.53
2023-02-03T20:02:23.419Z,85.48
2023-02-03T20:04:53.734Z,85.16
2023-02-03T20:07:23.371Z,85.31
2023-02-03T20:09:51.758Z,84.68
2023-02-03T20:12:20.480Z,85.08
2023-02-03T20:14:49.269Z,84.18
2023-02-03T20:17:18.016Z,84.51
2023-02-03T20:19:47.227Z,84.11
2023-02-03T20:22:17.463Z,84.10
2023-02-03T20:24:46.310Z,83.70
2023-02-03T20:27:15.033Z,83.51
2023-02-03T20:29:43.959Z,83.41
2023-02-03T20:32:12.621Z,82.95
2023-02-03T20:34:42.320Z,83.04
2023-02-03T20:37:10.726Z,83.20
2023-02-03T20:39:42.021Z,83.32
2023-02-03T20:42:17.057Z,83.29
2023-02-03T20:44:45.852Z,83.16
2023-02-03T20:47:18.043Z,82.42
2023-02-03T20:49:48.090Z,82.84
2023-02-03T20:52:19.290Z,82.57
2023-02-03T20:54:49.619Z,82.61
2023-02-03T20:57:20.814Z,82.69
2023-02-03T20:59:49.738Z,82.91
2023-02-03T21:02:23.297Z,82.42
2023-02-03T21:05:01.996Z,82.08
2023-02-03T21:07:31.641Z,82.17
2023-02-03T21:10:01.715Z,82.49
2023-02-03T21:12:30.511Z,82.16
2023-02-03T21:14:59.237Z,82.91
2023-02-03T21:17:28.902Z,82.74
2023-02-03T21:19:58.084Z,82.64
2023-02-03T21:22:30.623Z,82.16
2023-02-03T21:25:03.514Z,81.49
2023-02-03T21:27:34.057Z,81.46
2023-02-03T21:30:07.850Z,81.63
2023-02-03T21:32:39.682Z,81.36
2023-02-03T21:35:25.302Z,81.13
2023-02-03T21:37:57.425Z,80.46
2023-02-03T21:40:30.232Z,80.42
2023-02-03T21:43:01.697Z,80.40
2023-02-03T21:45:43.234Z,80.54
2023-02-03T21:48:33.442Z,80.15
2023-02-03T21:51:04.366Z,80.31
2023-02-03T21:53:35.934Z,80.61
2023-02-03T21:56:20.250Z,80.89
2023-02-03T21:58:51.310Z,80.74
2023-02-03T22:01:23.201Z,80.70
2023-02-03T22:03:53.338Z,80.79
2023-02-03T22:06:26.408Z,81.16
2023-02-03T22:08:56.918Z,81.38
2023-02-03T22:11:28.562Z,82.06
2023-02-03T22:13:57.791Z,82.51
2023-02-03T22:16:26.985Z,82.56
2023-02-03T22:18:55.949Z,82.25
2023-02-03T22:21:25.092Z,82.57
2023-02-03T22:23:54.061Z,83.31
2023-02-03T22:26:22.929Z,83.52
2023-02-03T22:28:53.298Z,82.98
2023-02-03T22:31:22.818Z,83.50
2023-02-03T22:33:51.646Z,83.27
2023-02-03T22:36:22.383Z,83.39
2023-02-03T22:38:51.183Z,83.20
2023-02-03T22:41:21.077Z,83.85
2023-02-03T22:43:49.973Z,83.45
2023-02-03T22:46:20.306Z,83.39
2023-02-03T22:48:49.173Z,83.98
2023-02-03T22:51:17.895Z,83.73
2023-02-03T22:53:46.778Z,83.49
2023-02-03T22:56:15.519Z,83.85
2023-02-03T22:58:44.382Z,84.49
2023-02-03T23:01:13.049Z,84.42
2023-02-03T23:03:43.701Z,84.25
2023-02-03T23:06:12.547Z,83.78
2023-02-03T23:08:41.239Z,84.80
2023-02-03T23:11:10.108Z,84.15
2023-02-03T23:13:38.879Z,84.59
2023-02-03T23:16:07.974Z,84.02
2023-02-03T23:18:36.698Z,84.00
2023-02-03T23:21:07.262Z,84.28
2023-02-03T23:23:36.081Z,84.06
2023-02-03T23:26:04.894Z,83.30
2023-02-03T23:28:33.884Z,83.79
2023-02-03T23:31:04.251Z,83.03
2023-02-03T23:33:33.031Z,82.80
2023-02-03T23:36:00.715Z,82.73
2023-02-03T23:38:30.945Z,82.95
2023-02-03T23:40:59.747Z,82.95
2023-02-03T23:43:28.469Z,82.45
2023-02-03T23:45:57.206Z,82.11
2023-02-03T23:48:25.946Z,81.91
2023-02-03T23:50:54.672Z,82.30
2023-02-03T23:53:23.420Z,82.31
2023-02-03T23:55:53.642Z,81.92
2023-02-03T23:58:22.501Z,82.42
